Time;durP1;ratioP1;P1;durP2;ratioP2;P2;SDS_P1;SDS_P2;PMS_P1;PMS_P2;Temp;Humidity;BMP_temperature;BMP_pressure;BME280_temperature;BME280_humidity;BME280_pressure;Samples;Min_cycle;Max_cycle;Signal;HPM_P1;HPM_P2
2022/06/11 00:02:11;;;;;;;14.10;2.17;;;;;;;23.05;43.03;100985.13;4994085;28;20497;-61
2022/06/11 00:05:02;;;;;;;11.90;2.15;;;;;;;22.98;43.34;100983.13;4993197;28;20049;-61
2022/06/11 00:07:53;;;;;;;8.50;1.60;;;;;;;23.03;42.91;100977.97;4993205;28;20153;-61
2022/06/11 00:10:44;;;;;;;5.82;2.13;;;;;;;22.93;43.23;100975.97;4992419;28;20049;-61
2022/06/11 00:13:37;;;;;;;9.23;1.30;;;;;;;22.94;43.17;100977.56;4992248;28;20061;-61
2022/06/11 00:16:29;;;;;;;4.18;1.60;;;;;;;22.98;42.75;100972.81;4992733;28;20045;-61
2022/06/11 00:19:20;;;;;;;7.78;1.25;;;;;;;22.96;43.23;100975.19;4993951;28;20049;-61
2022/06/11 00:22:13;;;;;;;7.35;1.70;;;;;;;22.89;43.16;100977.97;4992899;28;20065;-61
2022/06/11 00:25:05;;;;;;;3.70;1.00;;;;;;;22.86;42.83;100970.41;4973595;28;20046;-61
2022/06/11 00:27:56;;;;;;;2.97;1.00;;;;;;;22.86;42.43;100970.41;4973655;28;20057;-61
2022/06/11 00:30:48;;;;;;;5.72;1.42;;;;;;;22.91;42.36;100977.53;4986658;28;20042;-61
2022/06/11 00:33:39;;;;;;;5.40;1.00;;;;;;;22.98;41.85;100981.16;4989813;28;20418;-61
2022/06/11 00:36:30;;;;;;;7.72;1.50;;;;;;;22.93;41.95;100981.53;4990242;28;20045;-61
2022/06/11 00:39:26;;;;;;;15.05;2.38;;;;;;;22.97;41.94;100987.88;4993779;28;20517;-61
2022/06/11 00:42:22;;;;;;;8.05;1.65;;;;;;;22.75;43.02;101013.97;4992631;28;20053;-61
2022/06/11 00:45:20;;;;;;;2.88;0.77;;;;;;;22.45;43.78;101002.31;4994791;28;20045;-61
2022/06/11 00:48:35;;;;;;;1.85;0.50;;;;;;;22.71;42.34;101017.88;4992399;28;20053;-61
2022/06/11 00:51:26;;;;;;;;;;;;;;;22.81;42.16;101001.28;4992701;28;20065;-61
2022/06/11 00:54:22;;;;;;;2.75;0.35;;;;;;;22.70;41.80;101014.31;4985319;28;20297;-61
2022/06/11 00:57:14;;;;;;;4.43;0.40;;;;;;;22.69;42.14;101004.41;4987720;28;20041;-62
2022/06/11 01:00:15;;;;;;;2.20;0.43;;;;;;;22.80;41.68;101015.56;4992362;28;20069;-61
2022/06/11 01:03:09;;;;;;;2.78;0.55;;;;;;;22.83;41.50;101012.81;4992434;28;20065;-61
2022/06/11 01:06:19;;;;;;;2.05;0.50;;;;;;;22.89;41.67;101008.47;4991705;28;20045;-61
2022/06/11 01:09:27;;;;;;;1.02;0.70;;;;;;;22.91;41.83;101002.50;4992472;28;20041;-61
2022/06/11 01:12:30;;;;;;;1.55;0.43;;;;;;;22.98;41.45;100994.22;4994617;28;20053;-61
2022/06/11 01:15:36;;;;;;;13.02;0.70;;;;;;;22.90;41.76;100998.16;4991137;28;20053;-61
2022/06/11 01:18:53;;;;;;;2.25;1.23;;;;;;;22.86;41.65;101000.91;4992354;28;20410;-61
2022/06/11 01:22:07;;;;;;;1.70;0.95;;;;;;;22.69;42.64;101004.41;4992190;28;20412;-62
2022/06/11 01:25:02;;;;;;;1.83;0.65;;;;;;;22.55;43.44;101002.34;4985630;28;20041;-61
2022/06/11 01:28:01;;;;;;;;;;;;;;;22.44;44.00;101000.72;4992041;28;20046;-61
2022/06/11 01:31:12;;;;;;;3.95;0.63;;;;;;;22.34;44.60;100993.16;4998239;28;20369;-61
2022/06/11 01:34:23;;;;;;;3.75;0.82;;;;;;;22.23;44.36;101001.41;4991551;28;20041;-61
2022/06/11 01:37:23;;;;;;;6.38;0.68;;;;;;;22.29;44.51;100999.88;4987250;28;20041;-61
2022/06/11 01:40:35;;;;;;;7.97;0.73;;;;;;;22.27;44.64;100998.66;4986685;28;20065;-61
2022/06/11 01:43:36;;;;;;;5.57;1.27;;;;;;;22.31;44.62;101000.25;4992004;28;20045;-61
2022/06/11 01:46:39;;;;;;;1.95;0.75;;;;;;;22.27;44.66;101005.00;4990978;28;20049;-61
2022/06/11 01:49:29;;;;;;;9.13;0.98;;;;;;;22.12;45.04;101004.13;4991439;28;20485;-61
2022/06/11 01:52:41;;;;;;;6.05;0.55;;;;;;;22.16;44.70;100995.81;4990911;28;20409;-61
2022/06/11 01:55:56;;;;;;;1.95;0.70;;;;;;;22.02;45.12;101007.63;4995004;28;20049;-61
2022/06/11 01:58:53;;;;;;;2.53;0.60;;;;;;;22.04;45.11;101013.56;4991133;28;20049;-61
2022/06/11 02:01:56;;;;;;;3.78;0.82;;;;;;;21.96;45.09;101005.59;4990924;28;20045;-62
2022/06/11 02:05:02;;;;;;;2.07;0.90;;;;;;;22.04;44.76;101012.78;4991218;28;20045;-61
2022/06/11 02:08:13;;;;;;;1.90;0.77;;;;;;;22.07;45.09;101004.47;4994234;28;20422;-61
2022/06/11 02:11:16;;;;;;;7.90;1.90;;;;;;;22.02;44.94;101010.38;4994863;28;20449;-61
2022/06/11 02:14:28;;;;;;;7.15;0.82;;;;;;;22.06;45.32;101011.19;4995306;28;20425;-61
2022/06/11 02:17:26;;;;;;;6.80;1.38;;;;;;;22.07;45.09;101012.78;4994339;28;20124;-61
2022/06/11 02:20:25;;;;;;;10.45;1.17;;;;;;;22.10;45.47;101014.78;4991262;28;20048;-61
2022/06/11 02:23:24;;;;;;;12.45;2.60;;;;;;;22.05;45.47;101009.59;4994687;28;20038;-61
2022/06/11 02:26:25;;;;;;;16.77;3.42;;;;;;;21.94;45.54;101016.28;4993604;28;20061;-61
2022/06/11 02:29:18;;;;;;;19.77;2.30;;;;;;;21.86;45.71;101017.34;4994898;28;20069;-61
2022/06/11 02:32:15;;;;;;;11.45;1.50;;;;;;;21.86;46.16;101014.59;4994645;28;20050;-61
2022/06/11 02:35:10;;;;;;;10.85;1.98;;;;;;;21.71;46.26;101010.91;4994652;28;20046;-61
2022/06/11 02:38:01;;;;;;;15.45;2.97;;;;;;;21.70;46.59;101015.66;4988664;28;20413;-61
2022/06/11 02:41:04;;;;;;;14.30;2.58;;;;;;;21.72;46.46;101020.81;4994590;28;20034;-62
2022/06/11 02:43:56;;;;;;;10.52;2.53;;;;;;;21.63;46.51;101020.34;4997676;28;20493;-61
2022/06/11 02:46:48;;;;;;;5.93;0.98;;;;;;;21.49;47.13;101025.72;4994511;28;20042;-61
2022/06/11 02:49:39;;;;;;;2.05;0.80;;;;;;;21.56;46.88;101014.75;4994730;28;20057;-61
2022/06/11 02:52:31;;;;;;;6.50;0.75;;;;;;;21.50;47.05;101019.03;4994520;28;20053;-61
2022/06/11 02:55:23;;;;;;;7.55;1.10;;;;;;;21.50;47.42;101024.56;4993828;28;20332;-61
2022/06/11 02:58:15;;;;;;;5.70;1.20;;;;;;;21.50;47.19;101025.34;4993850;28;20045;-61
2022/06/11 03:01:07;;;;;;;6.63;1.00;;;;;;;21.38;47.40;101027.63;4994236;28;20050;-61
2022/06/11 03:03:58;;;;;;;4.55;0.90;;;;;;;21.34;47.90;101028.38;4991724;28;20524;-61
2022/06/11 03:06:50;;;;;;;2.20;0.75;;;;;;;21.20;48.10;101039.31;4994105;28;20049;-61
2022/06/11 03:09:42;;;;;;;3.17;1.00;;;;;;;21.38;47.30;101035.94;4993905;28;20038;-61
2022/06/11 03:12:33;;;;;;;9.27;0.90;;;;;;;21.36;47.43;101033.53;4994127;28;20049;-61
2022/06/11 03:15:25;;;;;;;4.40;0.95;;;;;;;21.46;47.32;101045.88;4994021;28;20053;-61
2022/06/11 03:18:16;;;;;;;8.50;1.00;;;;;;;21.11;48.27;101047.09;4993316;28;20065;-61
2022/06/11 03:21:08;;;;;;;4.47;0.80;;;;;;;21.18;47.53;101052.69;4993725;28;20046;-62
2022/06/11 03:23:59;;;;;;;7.55;0.93;;;;;;;21.36;47.26;101054.88;4993787;28;20041;-61
2022/06/11 03:26:51;;;;;;;5.93;1.15;;;;;;;21.05;48.06;101050.56;5085389;22;20053;-62
2022/06/11 03:29:41;;;;;;;3.42;1.02;;;;;;;21.27;47.31;101052.41;5012778;28;20057;-61
2022/06/11 03:32:32;;;;;;;5.38;0.75;;;;;;;21.15;47.45;101058.22;5013521;28;20056;-62
2022/06/11 03:35:23;;;;;;;3.47;0.82;;;;;;;21.14;47.87;101060.16;5017145;28;20061;-61
2022/06/11 03:38:15;;;;;;;3.38;0.60;;;;;;;21.14;47.24;101054.63;5014996;28;20049;-61
2022/06/11 03:41:06;;;;;;;8.32;1.33;;;;;;;21.25;46.31;101069.38;5013727;28;20053;-62
2022/06/11 03:43:57;;;;;;;5.25;1.50;;;;;;;21.21;46.51;101063.03;4994050;28;20046;-62
2022/06/11 03:46:48;;;;;;;13.75;2.92;;;;;;;21.19;46.58;101072.88;4994144;28;20046;-61
2022/06/11 03:49:39;;;;;;;14.88;1.95;;;;;;;21.22;46.34;101070.16;5012515;28;20037;-61
2022/06/11 03:52:30;;;;;;;11.02;1.75;;;;;;;21.09;46.59;101070.75;5013626;28;20038;-62
2022/06/11 03:55:23;;;;;;;11.07;1.88;;;;;;;21.23;46.00;101080.03;5013070;28;20042;-61
2022/06/11 03:58:18;;;;;;;31.40;4.30;;;;;;;21.23;46.00;101082.03;5012967;28;20045;-62
2022/06/11 04:01:16;;;;;;;8.18;1.10;;;;;;;21.12;46.50;101076.34;5012866;28;20046;-62
2022/06/11 04:04:12;;;;;;;4.78;0.80;;;;;;;21.18;46.27;101071.28;5012669;28;20048;-61
2022/06/11 04:07:04;;;;;;;7.13;1.55;;;;;;;21.27;45.78;101080.09;5012825;28;20040;-61
2022/06/11 04:09:55;;;;;;;2.83;0.55;;;;;;;21.31;45.36;101081.72;5012457;28;20065;-62
2022/06/11 04:12:45;;;;;;;4.88;0.73;;;;;;;21.42;45.64;101081.81;4993298;28;20061;-62
2022/06/11 04:15:39;;;;;;;4.60;0.60;;;;;;;21.48;45.32;101085.84;4994749;28;20065;-61
2022/06/11 04:18:36;;;;;;;0.80;0.50;;;;;;;21.52;45.39;101091.41;5010574;28;20061;-62
2022/06/11 04:21:29;;;;;;;5.70;0.40;;;;;;;21.49;45.52;101092.16;5012084;28;20108;-62
2022/06/11 04:24:20;;;;;;;8.40;0.63;;;;;;;21.54;45.00;101095.38;5012259;28;20519;-62
2022/06/11 04:27:13;;;;;;;4.07;1.15;;;;;;;21.56;44.50;101095.81;5012113;28;20044;-62
2022/06/11 04:30:05;;;;;;;3.05;0.60;;;;;;;21.64;44.66;101097.44;5011373;28;20053;-61
2022/06/11 04:32:56;;;;;;;3.72;0.50;;;;;;;21.68;44.74;101101.06;5012521;28;20052;-62
2022/06/11 04:35:46;;;;;;;1.08;0.50;;;;;;;21.70;44.87;101098.69;5007225;28;20049;-62
2022/06/11 04:38:39;;;;;;;1.98;0.70;;;;;;;21.72;45.10;101095.56;5012071;28;20052;-62
2022/06/11 04:41:29;;;;;;;5.03;0.65;;;;;;;21.78;45.30;101099.56;5012114;28;20053;-62
2022/06/11 04:44:21;;;;;;;2.17;0.60;;;;;;;21.92;45.05;101101.66;5017825;28;20049;-61
2022/06/11 04:47:15;;;;;;;9.85;0.57;;;;;;;21.94;45.34;101108.44;5018306;28;20049;-62
2022/06/11 04:50:07;;;;;;;0.52;0.38;;;;;;;21.99;45.28;101107.31;5007324;28;20048;-61
2022/06/11 04:52:58;;;;;;;12.93;0.57;;;;;;;22.08;45.01;101105.81;5012524;28;20049;-61
2022/06/11 04:55:49;;;;;;;7.93;0.65;;;;;;;22.11;45.34;101102.25;5011583;28;20046;-61
2022/06/11 04:58:40;;;;;;;5.55;0.70;;;;;;;22.23;44.69;101105.91;5011579;28;20048;-61
2022/06/11 05:01:32;;;;;;;2.67;0.73;;;;;;;22.32;44.61;101109.94;5011804;28;20049;-61
2022/06/11 05:04:23;;;;;;;3.38;0.85;;;;;;;22.32;44.68;101111.91;5011575;28;20045;-61
2022/06/11 05:07:14;;;;;;;4.60;0.70;;;;;;;22.41;44.75;101106.81;5017394;28;20523;-62
2022/06/11 05:10:07;;;;;;;3.13;1.38;;;;;;;22.49;45.08;101111.22;5006772;28;20044;-61
2022/06/11 05:12:58;;;;;;;6.82;0.50;;;;;;;22.55;45.50;101120.78;5005092;28;20057;-63
2022/06/11 05:15:52;;;;;;;6.75;0.75;;;;;;;23.08;44.53;101114.72;5011393;28;20049;-61
2022/06/11 05:18:44;;;;;;;10.70;0.90;;;;;;;23.28;43.78;101113.22;5011717;28;20048;-60
2022/06/11 05:21:35;;;;;;;7.63;0.68;;;;;;;23.39;43.50;101125.94;5011459;28;20485;-60
2022/06/11 05:24:29;;;;;;;2.35;0.50;;;;;;;23.49;43.43;101124.41;5011613;28;20048;-60
2022/06/11 05:27:24;;;;;;;4.05;0.65;;;;;;;23.59;42.95;101128.38;5012745;28;20049;-60
2022/06/11 05:30:24;;;;;;;7.65;0.80;;;;;;;23.66;42.82;101120.88;5008769;28;20049;-60
2022/06/11 05:33:17;;;;;;;8.18;0.70;;;;;;;23.71;42.42;101125.25;5010434;28;20048;-60
2022/06/11 05:36:09;;;;;;;2.58;0.60;;;;;;;23.77;42.02;101132.78;5011146;28;20401;-60
2022/06/11 05:38:59;;;;;;;2.75;0.60;;;;;;;23.80;41.73;101123.66;5011220;28;20061;-60
2022/06/11 05:41:50;;;;;;;26.52;4.18;;;;;;;23.85;43.85;101126.06;5019026;28;20428;-61
2022/06/11 05:44:42;;;;;;;12.93;2.45;;;;;;;23.81;44.05;101125.28;5015394;28;20037;-61
2022/06/11 05:47:34;;;;;;;5.20;1.92;;;;;;;23.82;44.34;101129.59;5015455;28;20056;-61
2022/06/11 05:50:31;;;;;;;7.20;1.67;;;;;;;23.84;44.68;101132.78;5020999;28;20057;-62
2022/06/11 05:53:24;;;;;;;9.45;1.60;;;;;;;23.90;44.35;101130.44;5015221;28;20049;-62
2022/06/11 05:56:16;;;;;;;17.55;2.08;;;;;;;23.94;44.86;101131.22;5015082;28;20049;-62
2022/06/11 05:59:16;;;;;;;7.85;1.25;;;;;;;24.01;44.72;101130.44;5015103;28;20042;-62
2022/06/11 06:02:12;;;;;;;3.53;1.00;;;;;;;24.06;44.90;101135.59;5015136;28;20504;-62
2022/06/11 06:05:03;;;;;;;9.55;1.33;;;;;;;24.08;45.00;101136.78;5015178;28;20683;-62
2022/06/11 06:07:55;;;;;;;5.72;1.27;;;;;;;24.13;45.02;101138.34;5014917;28;20041;-62
2022/06/11 06:10:46;;;;;;;3.63;1.30;;;;;;;24.15;44.94;101135.97;5020605;28;20057;-61
2022/06/11 06:13:50;;;;;;;3.30;0.82;;;;;;;24.19;44.79;101132.03;5006789;28;20049;-61
2022/06/11 06:16:40;;;;;;;2.42;0.70;;;;;;;24.23;44.68;101134.81;5014875;28;20049;-61
2022/06/11 06:19:32;;;;;;;5.18;1.95;;;;;;;24.27;44.72;101135.63;4994919;28;20049;-62
2022/06/11 06:22:24;;;;;;;3.70;1.40;;;;;;;24.31;44.82;101130.84;4995100;28;20053;-61
2022/06/11 06:25:21;;;;;;;2.78;1.05;;;;;;;24.35;44.91;101128.84;4995260;28;20042;-61
2022/06/11 06:28:12;;;;;;;6.75;0.90;;;;;;;24.36;44.75;101132.44;4994924;28;20054;-61
2022/06/11 06:31:05;;;;;;;7.70;1.05;;;;;;;24.40;44.86;101134.00;5000681;28;20049;-62
2022/06/11 06:34:01;;;;;;;3.65;2.00;;;;;;;24.43;44.37;101133.19;4994979;28;20053;-61
2022/06/11 06:36:51;;;;;;;4.65;1.00;;;;;;;24.48;44.39;101135.56;5007153;28;20069;-61
2022/06/11 06:39:42;;;;;;;7.78;1.27;;;;;;;24.51;44.12;101139.56;5014430;28;20060;-61
2022/06/11 06:42:34;;;;;;;3.80;0.70;;;;;;;24.55;43.68;101145.91;5020221;28;20513;-61
2022/06/11 06:45:24;;;;;;;4.90;0.77;;;;;;;24.57;43.69;101138.75;5014361;28;20072;-61
2022/06/11 06:48:16;;;;;;;5.43;0.65;;;;;;;24.58;43.74;101145.13;5014423;28;20064;-61
2022/06/11 06:51:07;;;;;;;6.05;0.57;;;;;;;24.58;43.97;101157.00;5014237;28;20049;-61
2022/06/11 06:53:58;;;;;;;3.10;0.90;;;;;;;24.59;40.47;101146.69;5019807;28;20041;-61
2022/06/11 06:56:48;;;;;;;2.72;0.70;;;;;;;24.74;38.56;101153.81;4998440;28;20397;-60
2022/06/11 06:59:39;;;;;;;2.58;0.98;;;;;;;24.84;38.00;101152.22;5013541;28;20543;-60
2022/06/11 07:02:31;;;;;;;3.15;0.80;;;;;;;24.83;39.86;101154.19;5019624;28;20073;-61
2022/06/11 07:05:25;;;;;;;3.10;1.10;;;;;;;24.84;42.02;101152.22;5014069;28;20393;-60
2022/06/11 07:08:17;;;;;;;3.33;1.00;;;;;;;24.88;41.68;101153.03;5014108;28;20542;-60
2022/06/11 07:11:08;;;;;;;5.90;1.58;;;;;;;24.89;41.59;101151.84;5013910;28;20049;-60
2022/06/11 07:13:59;;;;;;;8.88;2.05;;;;;;;24.93;42.30;101155.41;5013691;28;20428;-60
2022/06/11 07:16:54;;;;;;;5.75;1.13;;;;;;;25.00;40.34;101152.56;5013748;28;20413;-61
2022/06/11 07:19:58;;;;;;;4.80;1.05;;;;;;;25.07;38.67;101149.78;5013495;28;20060;-61
2022/06/11 07:23:01;;;;;;;16.67;1.48;;;;;;;25.11;38.77;101150.56;4994142;28;20057;-61
2022/06/11 07:25:57;;;;;;;5.47;1.50;;;;;;;25.15;39.68;101154.09;4994317;28;20034;-60
2022/06/11 07:28:57;;;;;;;5.57;1.58;;;;;;;25.31;37.67;101146.09;4993317;28;20134;-61
2022/06/11 07:31:51;;;;;;;7.97;0.85;;;;;;;25.33;38.22;101149.28;4993873;28;20046;-61
2022/06/11 07:34:43;;;;;;;2.55;1.08;;;;;;;25.32;39.50;101146.88;4993566;28;20073;-62
2022/06/11 07:37:36;;;;;;;5.95;1.10;;;;;;;25.51;38.75;101149.94;4993763;28;20441;-61
2022/06/11 07:40:27;;;;;;;7.63;1.77;;;;;;;25.50;38.95;101145.59;4993886;28;20053;-62
2022/06/11 07:43:18;;;;;;;4.72;1.25;;;;;;;25.60;37.79;101148.75;4994052;28;20054;-61
2022/06/11 07:46:09;;;;;;;4.15;1.45;;;;;;;25.60;38.36;101148.75;4993559;28;20042;-61
2022/06/11 07:49:00;;;;;;;8.32;1.35;;;;;;;25.61;38.50;101142.75;4994513;28;20065;-61
2022/06/11 07:51:51;;;;;;;6.55;2.15;;;;;;;25.60;40.54;101145.97;4993499;28;20061;-62
2022/06/11 07:54:42;;;;;;;8.10;1.63;;;;;;;25.61;40.38;101145.53;4993313;28;20062;-63
2022/06/11 07:57:33;;;;;;;3.08;1.33;;;;;;;25.75;37.46;101147.47;4993318;28;20045;-62
2022/06/11 08:00:28;;;;;;;10.35;1.98;;;;;;;25.74;40.25;101157.81;4993971;28;20073;-61
2022/06/11 08:03:20;;;;;;;4.80;0.80;;;;;;;25.80;38.02;101160.97;5018387;28;20029;-61
2022/06/11 08:06:11;;;;;;;4.20;1.42;;;;;;;25.87;37.97;101146.97;5000397;28;20409;-62
2022/06/11 08:09:03;;;;;;;5.32;1.20;;;;;;;26.08;36.55;101152.38;5012775;28;20048;-62
2022/06/11 08:11:53;;;;;;;5.78;1.23;;;;;;;26.30;35.73;101153.03;5012918;28;20049;-61
2022/06/11 08:14:44;;;;;;;2.05;0.60;;;;;;;26.48;35.21;101159.25;5011598;28;20053;-61
2022/06/11 08:17:36;;;;;;;3.13;0.60;;;;;;;26.70;33.90;101166.19;5012030;28;20068;-62
2022/06/11 08:20:31;;;;;;;5.38;1.48;;;;;;;26.73;33.60;101164.56;5012515;28;20053;-62
2022/06/11 08:23:23;;;;;;;9.02;1.90;;;;;;;26.68;34.59;101168.59;5012534;28;20044;-62
2022/06/11 08:26:14;;;;;;;7.75;1.90;;;;;;;26.62;36.39;101161.88;5012403;28;20041;-61
2022/06/11 08:29:05;;;;;;;6.22;1.48;;;;;;;26.48;38.50;101155.66;5012317;28;20053;-62
2022/06/11 08:31:56;;;;;;;5.47;1.10;;;;;;;26.47;36.21;101159.63;5012374;28;20432;-62
2022/06/11 08:34:46;;;;;;;7.47;1.52;;;;;;;26.63;35.37;101148.72;5012372;28;20049;-61
2022/06/11 08:37:31;;;;;;;3.30;1.30;;;;;;;26.50;37.60;101162.41;5012246;28;20052;-61
2022/06/11 08:40:31;;;;;;;4.95;1.25;;;;;;;26.57;37.40;101167.13;5012012;28;20049;-61
2022/06/11 08:43:30;;;;;;;3.83;1.45;;;;;;;26.62;37.37;101169.44;5012209;28;20517;-61
2022/06/11 08:46:18;;;;;;;5.85;1.50;;;;;;;26.51;38.81;101166.00;5011902;28;20069;-61
2022/06/11 08:49:12;;;;;;;5.32;1.58;;;;;;;26.54;37.26;101165.97;5012093;28;20053;-61
2022/06/11 08:52:07;;;;;;;5.47;1.60;;;;;;;26.59;37.97;101159.13;5011909;28;20052;-61
2022/06/11 08:54:52;;;;;;;2.67;1.00;;;;;;;26.56;38.71;101163.56;5011934;28;20117;-61
2022/06/11 08:57:58;;;;;;;4.90;0.70;;;;;;;26.67;35.78;101160.63;5011794;28;20048;-61
2022/06/11 09:00:42;;;;;;;3.60;1.30;;;;;;;26.71;36.39;101167.78;5012130;28;20508;-61
2022/06/11 09:04:03;;;;;;;3.35;0.77;;;;;;;27.09;33.92;101163.00;5011624;28;20056;-61
2022/06/11 09:06:53;;;;;;;2.08;1.05;;;;;;;27.01;35.53;101164.28;5017298;28;20041;-61
2022/06/11 09:10:07;;;;;;;2.95;1.33;;;;;;;26.98;37.48;101170.69;5010990;28;20508;-61
2022/06/11 09:13:05;;;;;;;4.57;1.23;;;;;;;26.92;38.01;101155.59;5011892;28;20049;-61
2022/06/11 09:16:09;;;;;;;3.88;1.27;;;;;;;26.88;37.89;101163.22;5011122;28;20096;-61
2022/06/11 09:19:21;;;;;;;2.13;1.10;;;;;;;26.85;38.26;101157.66;5010945;28;20045;-63
2022/06/11 09:22:14;;;;;;;1.55;0.60;;;;;;;26.95;35.58;101154.00;5011706;28;20506;-63
2022/06/11 09:25:17;;;;;;;1.60;0.93;;;;;;;27.07;37.56;101156.25;5011661;28;20056;-63
2022/06/11 09:28:12;;;;;;;3.25;1.20;;;;;;;27.06;35.44;101161.03;5019930;22;20050;-76
2022/06/11 09:31:07;;;;;;;2.00;1.27;;;;;;;27.11;34.74;101160.59;4999682;28;20056;-76
2022/06/11 09:34:11;;;;;;;6.53;1.10;;;;;;;27.09;37.23;101159.41;5005918;28;20410;-76
2022/06/11 09:37:07;;;;;;;5.72;1.77;;;;;;;27.09;37.84;101170.56;5011411;28;20053;-77
2022/06/11 09:40:10;;;;;;;2.65;0.63;;;;;;;27.17;35.99;101172.09;5005625;28;20052;-77
2022/06/11 09:43:14;;;;;;;1.80;1.00;;;;;;;27.42;35.85;101174.56;5012965;28;20045;-76
2022/06/11 09:46:20;;;;;;;5.57;1.00;;;;;;;27.32;34.10;101167.13;5009239;28;20052;-77
2022/06/11 09:49:11;;;;;;;3.53;1.13;;;;;;;27.30;36.00;101169.53;4993450;28;20054;-78
2022/06/11 09:52:07;;;;;;;5.07;1.10;;;;;;;27.22;37.28;101161.25;4996746;28;20053;-77
2022/06/11 09:55:00;;;;;;;3.03;0.93;;;;;;;27.18;36.54;101157.69;4995247;28;20045;-76
2022/06/11 09:57:54;;;;;;;0.95;0.65;;;;;;;27.12;37.67;101158.59;5004617;28;20419;-78
2022/06/11 10:00:48;;;;;;;4.30;0.63;;;;;;;27.14;37.75;101164.53;5017737;28;20045;-77
2022/06/11 10:03:39;;;;;;;2.15;0.90;;;;;;;27.28;37.25;101160.78;5015667;28;20053;-76
2022/06/11 10:06:37;;;;;;;3.00;0.90;;;;;;;27.15;37.83;101158.53;5013311;28;20518;-77
2022/06/11 10:09:35;;;;;;;4.28;1.63;;;;;;;27.13;38.10;101151.78;5011837;28;20049;-76
2022/06/11 10:12:44;;;;;;;2.83;0.88;;;;;;;27.34;35.13;101147.91;5013641;28;20048;-76
2022/06/11 10:15:34;;;;;;;2.58;1.27;;;;;;;27.38;35.28;101151.47;5015670;28;20419;-76
2022/06/11 10:18:34;;;;;;;4.88;1.10;;;;;;;27.45;34.22;101151.38;5008124;28;20045;-76
2022/06/11 10:21:22;;;;;;;1.50;0.80;;;;;;;27.60;33.67;101141.59;5017073;28;20056;-77
2022/06/11 10:24:14;;;;;;;1.33;0.88;;;;;;;27.63;33.05;101149.91;5010067;28;20045;-77
2022/06/11 10:27:13;;;;;;;2.15;0.90;;;;;;;27.57;36.17;101148.03;5006054;28;20049;-76
2022/06/11 10:30:08;;;;;;;2.97;1.45;;;;;;;27.76;33.83;101144.56;5016943;28;20061;-76
2022/06/11 10:32:55;;;;;;;4.53;0.80;;;;;;;27.75;34.99;101140.19;4996341;28;20049;-77
2022/06/11 10:35:45;;;;;;;4.10;0.80;;;;;;;27.73;34.53;101142.63;5013364;28;20045;-77
2022/06/11 10:38:51;;;;;;;1.52;0.90;;;;;;;27.65;36.59;101133.53;4999611;28;20052;-76
2022/06/11 10:42:07;;;;;;;1.23;0.77;;;;;;;27.55;37.28;101134.47;5016212;28;20045;-77
2022/06/11 10:44:53;;;;;;;3.60;1.27;;;;;;;27.44;37.46;101144.19;5024222;28;20049;-77
2022/06/11 10:47:43;;;;;;;5.20;0.77;;;;;;;27.51;36.90;101133.75;5015809;28;20410;-78
2022/06/11 10:50:33;;;;;;;5.40;0.90;;;;;;;27.68;36.58;101129.13;5008114;28;20050;-75
2022/06/11 10:53:39;;;;;;;1.27;0.73;;;;;;;27.53;37.41;101130.53;5012533;28;20124;-76
2022/06/11 10:56:44;;;;;;;2.88;0.98;;;;;;;27.38;37.61;101134.72;5019310;28;20061;-77
2022/06/11 10:59:45;;;;;;;3.17;0.98;;;;;;;27.50;37.40;101118.19;5015600;28;20525;-78
2022/06/11 11:02:46;;;;;;;0.88;0.57;;;;;;;27.52;37.37;101126.16;5017829;28;20045;-77
2022/06/11 11:05:50;;;;;;;3.25;0.85;;;;;;;27.59;37.19;101126.03;5014696;28;20057;-77
2022/06/11 11:08:49;;;;;;;1.60;0.80;;;;;;;27.69;36.65;101119.50;5019497;28;20053;-76
2022/06/11 11:11:41;;;;;;;1.02;0.68;;;;;;;27.70;37.14;101111.91;5011627;28;20041;-78
2022/06/11 11:14:33;;;;;;;2.55;0.80;;;;;;;27.56;37.38;101115.72;5025432;28;20049;-77
2022/06/11 11:17:21;;;;;;;4.25;1.20;;;;;;;27.51;37.40;101116.19;5014035;28;20045;-79
2022/06/11 11:20:29;;;;;;;4.47;1.05;;;;;;;27.58;37.57;101113.31;5016885;28;20510;-78
2022/06/11 11:23:14;;;;;;;3.30;0.68;;;;;;;27.79;34.16;101103.78;5014945;28;20053;-78
2022/06/11 11:26:12;;;;;;;3.17;0.50;;;;;;;27.92;36.01;101105.56;5015390;28;20041;-77
2022/06/11 11:29:10;;;;;;;2.60;0.63;;;;;;;28.00;33.66;101095.84;5011032;28;20061;-75
2022/06/11 11:32:01;;;;;;;1.25;0.63;;;;;;;27.93;35.54;101095.97;5022516;28;20045;-77
2022/06/11 11:34:49;;;;;;;4.70;1.10;;;;;;;28.03;33.82;101106.19;5009638;28;20122;-76
2022/06/11 11:37:34;;;;;;;5.18;0.88;;;;;;;28.03;34.10;101097.78;5015966;28;20133;-76
2022/06/11 11:40:22;;;;;;;1.00;0.85;;;;;;;28.39;32.14;101102.78;5016571;28;20053;-76
2022/06/11 11:43:10;;;;;;;0.60;0.57;;;;;;;28.35;32.93;101090.84;5014988;28;20053;-77
2022/06/11 11:45:58;;;;;;;1.15;0.57;;;;;;;28.70;31.09;101095.75;5013865;28;20049;-77
2022/06/11 11:48:52;;;;;;;1.30;0.77;;;;;;;28.52;34.49;101092.53;5010685;28;20044;-76
2022/06/11 11:51:40;;;;;;;4.85;0.80;;;;;;;28.30;35.09;101092.13;5011161;28;20057;-76
2022/06/11 11:54:27;;;;;;;0.88;0.47;;;;;;;28.23;35.17;101091.50;5016029;28;20064;-77
2022/06/11 11:57:14;;;;;;;4.72;0.80;;;;;;;28.24;34.76;101088.25;5014083;28;20045;-78
2022/06/11 12:00:04;;;;;;;1.83;0.88;;;;;;;28.43;33.31;101095.91;5014662;28;20052;-77
2022/06/11 12:02:59;;;;;;;4.88;0.68;;;;;;;28.71;31.08;101094.56;5018562;28;20064;-78
2022/06/11 12:05:52;;;;;;;3.25;0.50;;;;;;;28.39;34.48;101083.19;5013668;28;20049;-77
2022/06/11 12:08:49;;;;;;;1.98;0.90;;;;;;;28.33;35.50;101090.50;5011998;28;20069;-78
2022/06/11 12:11:37;;;;;;;3.53;0.93;;;;;;;28.15;35.69;101090.03;5014948;28;20048;-77
2022/06/11 12:14:31;;;;;;;3.80;0.70;;;;;;;28.58;32.70;101084.44;5012945;28;20049;-76
2022/06/11 12:17:23;;;;;;;0.80;0.60;;;;;;;28.49;33.32;101083.00;5015258;28;20053;-77
2022/06/11 12:20:32;;;;;;;0.77;0.50;;;;;;;28.53;33.96;101091.31;5015656;28;20045;-77
2022/06/11 12:23:35;;;;;;;2.28;0.68;;;;;;;28.16;36.24;101083.22;5009392;28;20685;-76
2022/06/11 12:26:26;;;;;;;7.85;1.00;;;;;;;28.23;34.84;101074.72;5015187;28;20069;-80
2022/06/11 12:29:21;;;;;;;4.22;0.70;;;;;;;28.15;35.74;101070.44;5008613;28;20041;-78
2022/06/11 12:32:18;;;;;;;2.35;0.80;;;;;;;27.93;35.36;101072.81;5016133;28;20419;-77
2022/06/11 12:35:14;;;;;;;0.95;0.50;;;;;;;28.12;34.37;101074.91;5004309;28;20505;-77
2022/06/11 12:38:14;;;;;;;1.52;0.70;;;;;;;27.92;34.87;101072.00;5012551;28;20052;-77
2022/06/11 12:41:35;;;;;;;6.68;0.95;;;;;;;28.03;34.51;101069.84;4995600;28;20049;-79
2022/06/11 12:44:41;;;;;;;4.80;0.63;;;;;;;28.09;34.49;101068.09;5007881;28;20060;-78
2022/06/11 12:47:45;;;;;;;2.92;0.50;;;;;;;28.25;33.36;101078.63;5013571;28;20060;-77
2022/06/11 12:50:40;;;;;;;3.30;0.70;;;;;;;28.57;33.00;101063.25;5007288;28;20077;-77
2022/06/11 12:53:28;;;;;;;3.38;1.00;;;;;;;28.83;31.74;101065.94;5014516;28;20048;-76
2022/06/11 12:57:03;;;;;;;7.35;0.60;;;;;;;28.93;31.73;101066.94;5009638;28;20049;-77
2022/06/11 12:59:57;;;;;;;7.03;1.02;;;;;;;29.03;31.74;101053.94;4993806;28;20053;-77
2022/06/11 13:02:53;;;;;;;2.33;0.70;;;;;;;29.12;30.51;101054.91;4999715;28;20117;-78
2022/06/11 13:06:06;;;;;;;1.38;0.80;;;;;;;28.55;32.64;101054.53;5011564;28;20052;-78
2022/06/11 13:08:58;;;;;;;4.13;0.75;;;;;;;27.99;34.08;101059.91;4996195;28;20542;-77
2022/06/11 13:12:21;;;;;;;1.52;0.80;;;;;;;27.79;34.25;101056.25;5014564;28;20049;-77
2022/06/11 13:15:37;;;;;;;5.07;0.95;;;;;;;27.78;34.21;101052.69;5022227;28;20053;-79
2022/06/11 13:18:25;;;;;;;4.38;0.73;;;;;;;27.96;33.15;101047.56;5010189;28;20157;-76
2022/06/11 13:21:17;;;;;;;1.20;0.68;;;;;;;28.33;33.49;101043.75;5012669;28;20061;-77
2022/06/11 13:24:11;;;;;;;2.50;0.90;;;;;;;28.39;32.82;101038.44;5013312;28;20049;-78
2022/06/11 13:26:55;;;;;;;2.10;0.60;;;;;;;28.69;31.17;101034.63;5012094;28;20069;-78
2022/06/11 13:30:17;;;;;;;1.15;0.80;;;;;;;28.45;32.86;101031.09;5013169;28;20049;-77
2022/06/11 13:33:13;;;;;;;4.63;1.15;;;;;;;28.65;32.79;101033.91;5014013;28;20045;-79
2022/06/11 13:36:01;;;;;;;1.15;0.65;;;;;;;28.70;32.74;101028.59;5001361;28;20053;-77